Time;durP1;ratioP1;P1;durP2;ratioP2;P2;SDS_P1;SDS_P2;PMS_P1;PMS_P2;Temp;Humidity;BMP_temperature;BMP_pressure;BME280_temperature;BME280_humidity;BME280_pressure;Samples;Min_cycle;Max_cycle;Signal;HPM_P1;HPM_P2
2021/12/22 00:02:29;;;;;;;13.05;8.50;;;1.70;1.00;;;;;;5042530;28;20240;-80
2021/12/22 00:04:56;;;;;;;12.50;9.30;;;1.60;1.00;;;;;;5042826;28;20230;-81
2021/12/22 00:07:23;;;;;;;16.73;9.82;;;1.60;1.00;;;;;;5047912;28;20279;-79
2021/12/22 00:09:50;;;;;;;13.77;8.60;;;1.60;1.00;;;;;;5038691;28;20245;-81
2021/12/22 00:12:17;;;;;;;13.15;10.63;;;1.70;1.00;;;;;;5051879;28;20217;-81
2021/12/22 00:14:44;;;;;;;12.02;9.60;;;1.70;1.00;;;;;;5060860;28;20239;-81
2021/12/22 00:17:11;;;;;;;17.55;10.30;;;1.70;1.00;;;;;;5055978;28;20217;-80
2021/12/22 00:19:39;;;;;;;13.02;9.35;;;1.70;1.00;;;;;;5049131;28;20213;-80
2021/12/22 00:22:06;;;;;;;15.88;10.15;;;1.70;1.00;;;;;;5050956;28;20279;-80
2021/12/22 00:24:34;;;;;;;16.13;11.50;;;1.70;1.00;;;;;;5053652;28;20252;-81
2021/12/22 00:27:01;;;;;;;12.55;9.50;;;1.70;1.00;;;;;;5063134;28;20261;-80
2021/12/22 00:29:28;;;;;;;17.40;11.23;;;1.60;1.00;;;;;;5058066;28;20244;-79
2021/12/22 00:32:09;;;;;;;13.98;11.38;;;1.60;1.00;;;;;;5055910;28;20281;-80
2021/12/22 00:34:46;;;;;;;14.15;11.50;;;1.60;1.00;;;;;;5052538;28;20758;-80
2021/12/22 00:37:15;;;;;;;14.43;10.80;;;1.60;1.00;;;;;;5057553;28;20314;-80
2021/12/22 00:39:43;;;;;;;18.08;12.65;;;1.50;1.00;;;;;;5055524;28;20265;-81
2021/12/22 00:42:11;;;;;;;12.48;9.40;;;1.60;1.00;;;;;;5059191;28;20275;-80
2021/12/22 00:44:38;;;;;;;13.95;11.07;;;1.60;1.00;;;;;;5057865;28;20285;-80
2021/12/22 00:47:05;;;;;;;13.55;10.15;;;1.50;1.00;;;;;;5052537;28;20231;-79
2021/12/22 00:49:32;;;;;;;11.63;10.00;;;1.40;1.00;;;;;;5056870;28;20252;-80
2021/12/22 00:52:00;;;;;;;19.02;11.43;;;1.40;1.00;;;;;;5058071;28;20244;-80
2021/12/22 00:54:27;;;;;;;13.68;10.68;;;1.40;1.00;;;;;;5058466;28;20254;-80
2021/12/22 00:57:00;;;;;;;13.43;10.35;;;1.40;1.00;;;;;;5047242;28;20304;-82
2021/12/22 00:59:27;;;;;;;11.77;8.98;;;1.50;1.00;;;;;;5036360;28;20266;-82
2021/12/22 01:01:54;;;;;;;12.70;10.00;;;1.40;1.00;;;;;;5036315;28;20226;-81
2021/12/22 01:04:21;;;;;;;13.05;9.13;;;1.40;1.00;;;;;;5034849;28;20246;-82
2021/12/22 01:06:48;;;;;;;13.70;10.88;;;1.40;1.00;;;;;;5030657;28;20228;-81
2021/12/22 01:09:16;;;;;;;11.57;9.07;;;1.40;1.00;;;;;;5038295;28;20236;-79
2021/12/22 01:11:43;;;;;;;14.23;8.68;;;1.40;1.00;;;;;;5036037;28;20233;-81
2021/12/22 01:14:10;;;;;;;9.63;8.15;;;1.40;1.00;;;;;;5040312;28;20244;-80
2021/12/22 01:16:38;;;;;;;11.48;8.50;;;1.40;1.00;;;;;;5046951;28;20285;-79
2021/12/22 01:19:12;;;;;;;12.50;7.85;;;1.30;1.00;;;;;;5042177;28;20367;-80
2021/12/22 01:21:57;;;;;;;10.73;7.45;;;1.30;1.00;;;;;;5041835;28;20217;-80
2021/12/22 01:24:32;;;;;;;11.43;7.60;;;1.30;1.00;;;;;;5058262;28;20243;-80
2021/12/22 01:27:05;;;;;;;14.00;7.85;;;1.20;1.00;;;;;;5051499;28;20230;-83
2021/12/22 01:29:33;;;;;;;11.95;7.47;;;1.20;1.00;;;;;;5044758;28;20241;-81
2021/12/22 01:32:00;;;;;;;10.98;7.68;;;1.20;1.00;;;;;;5037524;28;21522;-81
2021/12/22 01:34:28;;;;;;;10.70;7.38;;;1.10;1.00;;;;;;5048080;28;20221;-83
2021/12/22 01:36:55;;;;;;;12.48;8.10;;;1.00;1.00;;;;;;5044664;28;20261;-82
2021/12/22 01:39:22;;;;;;;12.23;8.20;;;1.00;1.00;;;;;;5047505;28;20222;-79
2021/12/22 01:41:51;;;;;;;12.50;7.50;;;0.90;1.00;;;;;;5060141;28;20238;-80
2021/12/22 01:44:46;;;;;;;11.65;7.70;;;0.90;1.00;;;;;;5063247;28;20260;-79
2021/12/22 01:49:59;;;;;;;11.85;8.32;;;0.90;1.00;;;;;;5065386;28;20236;-80
2021/12/22 01:52:27;;;;;;;14.77;9.10;;;1.00;1.00;;;;;;5053955;28;20227;-80
2021/12/22 01:55:05;;;;;;;13.38;9.27;;;1.00;1.00;;;;;;5053132;28;20233;-79
2021/12/22 01:57:43;;;;;;;13.65;8.52;;;1.10;1.00;;;;;;5043057;28;20291;-82
2021/12/22 02:00:10;;;;;;;12.90;9.32;;;1.10;1.00;;;;;;5046816;28;20261;-80
2021/12/22 02:02:37;;;;;;;11.60;8.85;;;1.20;1.00;;;;;;5040950;28;20347;-80
2021/12/22 02:05:05;;;;;;;13.98;9.15;;;1.10;1.00;;;;;;5049323;28;20443;-83
2021/12/22 02:07:31;;;;;;;10.60;9.15;;;1.10;1.00;;;;;;5051472;28;20265;-81
2021/12/22 02:10:11;;;;;;;12.32;9.65;;;1.20;1.00;;;;;;5047527;28;20790;-81
2021/12/22 02:12:46;;;;;;;12.77;8.70;;;1.20;1.00;;;;;;5055834;28;20226;-82
2021/12/22 02:15:13;;;;;;;12.98;9.93;;;1.30;1.00;;;;;;5038345;28;20847;-82
2021/12/22 02:17:41;;;;;;;12.80;9.32;;;1.30;1.00;;;;;;5041061;28;20250;-80
2021/12/22 02:20:11;;;;;;;16.30;10.30;;;1.40;1.00;;;;;;5054122;28;20270;-81
2021/12/22 02:22:41;;;;;;;16.05;10.80;;;1.50;1.00;;;;;;5061476;28;20218;-81
2021/12/22 02:25:15;;;;;;;13.45;9.88;;;1.40;1.00;;;;;;5040707;28;20218;-81
2021/12/22 02:27:50;;;;;;;14.45;9.90;;;1.50;1.00;;;;;;5045178;28;20233;-81
2021/12/22 02:30:23;;;;;;;13.60;9.48;;;1.50;1.00;;;;;;5042584;28;20233;-81
2021/12/22 02:35:41;;;;;;;14.15;9.20;;;1.50;1.00;;;;;;5038247;28;20328;-84
2021/12/22 02:38:14;;;;;;;12.40;8.80;;;1.50;1.00;;;;;;5042121;28;20298;-81
2021/12/22 02:40:42;;;;;;;18.65;10.75;;;1.50;1.00;;;;;;5046123;28;20228;-81
2021/12/22 02:43:09;;;;;;;10.82;8.70;;;1.50;1.00;;;;;;5031971;28;20331;-82
2021/12/22 02:45:37;;;;;;;12.30;9.60;;;1.50;1.00;;;;;;5028886;28;20249;-81
2021/12/22 02:48:04;;;;;;;12.75;8.75;;;1.60;1.00;;;;;;5026287;28;20236;-82
2021/12/22 02:50:36;;;;;;;12.75;9.00;;;1.50;1.00;;;;;;5035785;28;20287;-81
2021/12/22 02:53:06;;;;;;;11.00;8.23;;;1.50;1.00;;;;;;5042363;28;20222;-80
2021/12/22 02:55:44;;;;;;;13.57;8.77;;;1.40;1.00;;;;;;5044282;28;20228;-80
2021/12/22 02:58:15;;;;;;;11.63;7.80;;;1.40;1.00;;;;;;5038998;28;20236;-82
2021/12/22 03:01:02;;;;;;;11.50;9.00;;;1.40;1.00;;;;;;5038236;28;20237;-82
2021/12/22 03:03:47;;;;;;;12.60;9.70;;;1.50;1.00;;;;;;5037422;28;20230;-80
2021/12/22 03:06:24;;;;;;;13.43;9.07;;;1.50;1.00;;;;;;5034284;28;22366;-82
2021/12/22 03:08:51;;;;;;;10.52;7.60;;;1.50;1.00;;;;;;5047074;28;20267;-80
2021/12/22 03:11:17;;;;;;;12.90;9.45;;;1.50;1.00;;;;;;5030913;28;20265;-81
2021/12/22 03:13:44;;;;;;;12.32;9.77;;;1.50;1.00;;;;;;5031279;28;20274;-82
2021/12/22 03:16:11;;;;;;;12.90;9.05;;;1.50;1.00;;;;;;5043011;28;20228;-81
2021/12/22 03:18:38;;;;;;;12.55;9.07;;;1.50;1.00;;;;;;5047472;28;20260;-81
2021/12/22 03:21:19;;;;;;;10.48;8.55;;;1.50;1.00;;;;;;5053331;28;20624;-80
2021/12/22 03:23:48;;;;;;;9.93;8.35;;;1.50;1.00;;;;;;5035970;28;20306;-84
2021/12/22 03:26:17;;;;;;;13.27;9.13;;;1.50;1.00;;;;;;5026661;28;20312;-82
2021/12/22 03:28:45;;;;;;;14.32;9.10;;;1.40;1.00;;;;;;5029320;28;20237;-81
2021/12/22 03:31:14;;;;;;;14.52;9.50;;;1.40;1.00;;;;;;5029915;28;20367;-81
2021/12/22 03:33:40;;;;;;;12.77;8.88;;;1.40;1.00;;;;;;5030091;28;20218;-82
2021/12/22 03:36:07;;;;;;;13.25;9.75;;;1.50;1.00;;;;;;5036735;28;20233;-81
2021/12/22 03:38:35;;;;;;;11.27;9.07;;;1.50;1.00;;;;;;5034364;28;20217;-80
2021/12/22 03:41:05;;;;;;;12.85;9.82;;;1.50;1.00;;;;;;5049551;28;20250;-81
2021/12/22 03:43:32;;;;;;;10.95;9.65;;;1.60;1.00;;;;;;5040378;28;20229;-83
2021/12/22 03:45:59;;;;;;;12.57;10.15;;;1.60;1.00;;;;;;5039015;28;20338;-82
2021/12/22 03:48:26;;;;;;;12.88;9.95;;;1.60;1.00;;;;;;5036443;28;20222;-82
2021/12/22 03:50:53;;;;;;;13.55;9.75;;;1.70;1.00;;;;;;5036957;28;20974;-84
2021/12/22 03:53:20;;;;;;;12.25;10.80;;;1.70;1.00;;;;;;5042537;28;20222;-83
2021/12/22 03:55:47;;;;;;;14.80;10.60;;;1.70;1.00;;;;;;5036513;28;20726;-80
2021/12/22 03:58:15;;;;;;;11.88;9.57;;;1.60;1.00;;;;;;5033502;28;20260;-82
2021/12/22 04:00:43;;;;;;;12.30;9.30;;;1.70;1.00;;;;;;5034388;28;20253;-81
2021/12/22 04:03:16;;;;;;;13.05;9.25;;;1.70;1.00;;;;;;5032134;28;20237;-81
2021/12/22 04:05:44;;;;;;;10.60;7.95;;;1.70;1.00;;;;;;5040046;28;20228;-81
2021/12/22 04:08:13;;;;;;;13.50;8.85;;;1.70;1.00;;;;;;5036906;28;20225;-81
2021/12/22 04:10:40;;;;;;;15.60;8.75;;;1.60;1.00;;;;;;5040399;28;20230;-81
2021/12/22 04:13:07;;;;;;;8.98;7.13;;;1.60;1.00;;;;;;5041764;28;20226;-80
2021/12/22 04:15:35;;;;;;;10.75;7.40;;;1.50;1.00;;;;;;5039538;28;20308;-81
2021/12/22 04:18:02;;;;;;;10.18;6.47;;;1.50;1.00;;;;;;5049521;28;20281;-82
2021/12/22 04:20:30;;;;;;;8.13;6.15;;;1.50;1.00;;;;;;5054939;28;20576;-80
2021/12/22 04:22:57;;;;;;;8.02;6.40;;;1.50;1.00;;;;;;5046513;28;20229;-82
2021/12/22 04:25:24;;;;;;;8.70;5.10;;;1.50;1.00;;;;;;5038969;28;20291;-81
2021/12/22 04:27:56;;;;;;;6.45;4.80;;;1.50;1.00;;;;;;5032700;28;20225;-81
2021/12/22 04:30:24;;;;;;;6.60;4.75;;;1.40;1.00;;;;;;5039066;28;20242;-83
2021/12/22 04:32:53;;;;;;;7.18;4.68;;;1.40;1.00;;;;;;5040857;28;20234;-82
2021/12/22 04:35:20;;;;;;;7.15;4.68;;;1.40;1.00;;;;;;5040460;28;20213;-82
2021/12/22 04:37:47;;;;;;;9.30;6.00;;;1.30;1.00;;;;;;5040788;28;20229;-81
2021/12/22 04:40:14;;;;;;;7.05;5.43;;;1.30;1.00;;;;;;5044776;28;20274;-82
2021/12/22 04:42:41;;;;;;;6.82;5.50;;;1.30;1.00;;;;;;5061186;28;20603;-80
2021/12/22 04:45:09;;;;;;;7.60;4.75;;;1.30;1.00;;;;;;5059615;28;20253;-80
2021/12/22 04:47:36;;;;;;;5.70;4.53;;;1.20;1.00;;;;;;5056953;28;20434;-80
2021/12/22 04:50:10;;;;;;;5.35;3.95;;;1.20;1.00;;;;;;5056320;28;20230;-79
2021/12/22 04:52:43;;;;;;;6.00;4.60;;;1.20;1.00;;;;;;5052041;28;20226;-79
2021/12/22 04:55:10;;;;;;;7.65;4.57;;;1.20;1.00;;;;;;5037200;28;20233;-80
2021/12/22 04:57:37;;;;;;;10.52;4.95;;;1.20;1.00;;;;;;5037543;28;20237;-83
2021/12/22 05:00:09;;;;;;;6.45;4.15;;;1.20;1.00;;;;;;5039145;28;21360;-82
2021/12/22 05:02:37;;;;;;;6.50;4.80;;;1.20;1.00;;;;;;5047365;28;20457;-82
2021/12/22 05:05:06;;;;;;;7.00;5.20;;;1.10;1.00;;;;;;5041454;28;20232;-82
2021/12/22 05:07:34;;;;;;;6.35;4.95;;;1.00;1.00;;;;;;5044154;28;20992;-82
2021/12/22 05:10:01;;;;;;;8.75;5.97;;;1.00;1.00;;;;;;5037608;28;20213;-82
2021/12/22 05:12:27;;;;;;;7.72;6.30;;;1.00;1.00;;;;;;5044305;28;20218;-81
2021/12/22 05:14:54;;;;;;;7.13;5.80;;;1.00;1.00;;;;;;5041058;28;20220;-83
2021/12/22 05:17:26;;;;;;;9.57;5.85;;;0.90;1.00;;;;;;5057225;28;20221;-81
2021/12/22 05:19:52;;;;;;;9.85;7.70;;;0.80;1.00;;;;;;5053030;28;20244;-81
2021/12/22 05:22:21;;;;;;;10.95;6.80;;;0.80;1.00;;;;;;5040159;28;20226;-81
2021/12/22 05:24:48;;;;;;;9.40;6.90;;;0.80;1.00;;;;;;5045678;28;20645;-82
2021/12/22 05:27:14;;;;;;;9.65;7.55;;;0.80;1.00;;;;;;5043640;28;20225;-80
2021/12/22 05:29:41;;;;;;;10.68;7.30;;;0.80;1.00;;;;;;5041550;28;24393;-83
2021/12/22 05:32:08;;;;;;;8.73;7.30;;;0.80;1.00;;;;;;5040617;28;20238;-85
2021/12/22 05:34:35;;;;;;;8.68;7.68;;;0.80;1.00;;;;;;5046571;28;21476;-82
2021/12/22 05:37:03;;;;;;;10.63;7.85;;;0.80;1.00;;;;;;5044044;28;20236;-80
2021/12/22 05:39:35;;;;;;;9.75;7.20;;;0.90;1.00;;;;;;5049120;28;20229;-81
2021/12/22 05:42:02;;;;;;;16.05;8.15;;;0.90;1.00;;;;;;5041475;28;20262;-85
2021/12/22 05:44:29;;;;;;;10.05;6.93;;;0.90;1.00;;;;;;5051887;28;20242;-81
2021/12/22 05:46:57;;;;;;;13.73;7.78;;;0.90;1.00;;;;;;5028356;28;20228;-81
2021/12/22 05:49:24;;;;;;;13.13;8.63;;;0.80;1.00;;;;;;5031436;28;20243;-79
2021/12/22 05:51:51;;;;;;;11.27;8.23;;;0.80;1.00;;;;;;5032911;28;20313;-77
2021/12/22 05:54:18;;;;;;;9.25;7.95;;;0.80;1.00;;;;;;5028361;28;20224;-75
2021/12/22 05:56:46;;;;;;;10.77;8.05;;;0.80;1.00;;;;;;5027038;28;20760;-76
2021/12/22 05:59:13;;;;;;;11.02;7.75;;;0.80;1.00;;;;;;5029279;28;21023;-82
2021/12/22 06:01:40;;;;;;;12.57;9.38;;;0.80;1.00;;;;;;5032478;28;20241;-81
2021/12/22 06:04:07;;;;;;;16.85;10.50;;;0.70;1.00;;;;;;5036121;28;20332;-78
2021/12/22 06:06:34;;;;;;;15.25;9.70;;;0.60;1.00;;;;;;5035846;28;20264;-82
2021/12/22 06:09:01;;;;;;;14.07;9.60;;;0.60;1.00;;;;;;5038519;28;20209;-79
2021/12/22 06:11:28;;;;;;;12.95;9.50;;;0.50;1.00;;;;;;5032610;28;20341;-83
2021/12/22 06:13:59;;;;;;;12.55;8.38;;;0.40;1.00;;;;;;5036707;28;20705;-81
2021/12/22 06:16:27;;;;;;;16.20;9.32;;;0.40;1.00;;;;;;5055145;28;20204;-80
2021/12/22 06:18:57;;;;;;;13.98;11.02;;;0.30;1.00;;;;;;5052666;28;20221;-81
2021/12/22 06:21:25;;;;;;;18.65;10.32;;;0.30;1.00;;;;;;5045025;28;21111;-79
2021/12/22 06:23:54;;;;;;;16.98;9.68;;;0.30;1.00;;;;;;5045763;28;20214;-80
2021/12/22 06:26:24;;;;;;;15.13;10.80;;;0.30;1.00;;;;;;5030191;28;20233;-81
2021/12/22 06:28:54;;;;;;;15.52;10.73;;;0.30;1.00;;;;;;5031662;28;20225;-81
2021/12/22 06:31:22;;;;;;;15.20;10.52;;;0.20;1.00;;;;;;5053587;28;20234;-81
2021/12/22 06:33:49;;;;;;;17.33;10.02;;;0.20;1.00;;;;;;5043364;28;20214;-82
2021/12/22 06:36:18;;;;;;;18.75;11.77;;;0.30;1.00;;;;;;5044453;28;20272;-81
2021/12/22 06:38:46;;;;;;;14.75;10.60;;;0.30;1.00;;;;;;5040846;28;21419;-81
2021/12/22 06:41:12;;;;;;;16.15;10.82;;;0.30;1.00;;;;;;5044166;28;20252;-82
2021/12/22 06:43:39;;;;;;;17.77;11.65;;;0.30;1.00;;;;;;5042101;28;20836;-81
2021/12/22 06:46:06;;;;;;;18.33;12.10;;;0.30;1.00;;;;;;5045414;28;20324;-80
2021/12/22 06:48:34;;;;;;;15.70;12.07;;;0.30;1.00;;;;;;5042635;28;20222;-80
2021/12/22 06:51:01;;;;;;;17.13;10.85;;;0.20;1.00;;;;;;5038484;28;20290;-81
2021/12/22 06:53:31;;;;;;;18.05;13.57;;;0.20;1.00;;;;;;5053576;28;20236;-82
2021/12/22 06:55:57;;;;;;;19.30;11.50;;;0.20;1.00;;;;;;5044596;28;20303;-82
2021/12/22 06:58:24;;;;;;;18.83;13.27;;;0.20;1.00;;;;;;5040908;28;20226;-82
2021/12/22 07:00:51;;;;;;;18.08;13.05;;;0.10;1.00;;;;;;5051624;28;20232;-82
2021/12/22 07:03:18;;;;;;;22.33;13.85;;;0.10;1.00;;;;;;5038281;28;20333;-79
2021/12/22 07:05:46;;;;;;;15.57;11.70;;;0.10;1.00;;;;;;5044696;28;20283;-81
2021/12/22 07:08:13;;;;;;;16.30;12.10;;;0.10;1.00;;;;;;5040136;28;20220;-83
2021/12/22 07:10:40;;;;;;;19.90;13.57;;;0.00;1.00;;;;;;5045741;28;20250;-82
2021/12/22 07:13:07;;;;;;;19.60;13.18;;;0.00;1.00;;;;;;5037229;28;20221;-82
2021/12/22 07:15:34;;;;;;;18.25;12.25;;;0.00;1.00;;;;;;5036174;28;20396;-81
2021/12/22 07:18:02;;;;;;;19.70;12.18;;;0.00;1.00;;;;;;5037633;28;20914;-81
2021/12/22 07:20:29;;;;;;;18.02;11.95;;;0.00;1.00;;;;;;5043788;28;20233;-82
2021/12/22 07:22:57;;;;;;;19.00;14.30;;;0.00;1.00;;;;;;5043146;28;20228;-82
2021/12/22 07:25:25;;;;;;;21.98;12.68;;;0.00;1.00;;;;;;5039292;28;20300;-81
2021/12/22 07:27:52;;;;;;;17.10;11.55;;;0.00;1.00;;;;;;5040898;28;20269;-80
2021/12/22 07:30:19;;;;;;;18.10;12.95;;;0.00;1.00;;;;;;5040633;28;20226;-81
2021/12/22 07:32:46;;;;;;;17.90;12.60;;;0.00;1.00;;;;;;5044801;28;20233;-81
2021/12/22 07:35:18;;;;;;;24.45;13.18;;;0.10;1.00;;;;;;5045521;28;20221;-81
2021/12/22 07:37:51;;;;;;;18.17;12.65;;;0.10;1.00;;;;;;5040386;28;20226;-81
2021/12/22 07:40:20;;;;;;;21.35;13.95;;;0.10;1.00;;;;;;5044048;28;20329;-80
2021/12/22 07:42:48;;;;;;;15.25;11.35;;;0.10;1.00;;;;;;5041642;28;20226;-79
2021/12/22 07:45:15;;;;;;;18.27;12.90;;;0.10;1.00;;;;;;5050271;28;20222;-81
2021/12/22 07:47:42;;;;;;;18.90;12.32;;;0.10;1.00;;;;;;5055792;28;20214;-76
2021/12/22 07:50:10;;;;;;;16.95;12.10;;;0.10;1.00;;;;;;5049888;28;20328;-79
2021/12/22 07:52:37;;;;;;;17.98;12.35;;;0.10;1.00;;;;;;5028817;28;20229;-79
2021/12/22 07:55:05;;;;;;;22.20;13.18;;;0.10;1.00;;;;;;5031958;28;20426;-79
2021/12/22 07:57:33;;;;;;;24.15;13.65;;;0.20;1.00;;;;;;5029674;28;20225;-79
2021/12/22 08:00:00;;;;;;;19.58;11.50;;;0.20;1.00;;;;;;5044308;28;20244;-78
2021/12/22 08:02:27;;;;;;;18.75;12.55;;;0.30;1.00;;;;;;5039710;28;20229;-79
2021/12/22 08:04:54;;;;;;;18.52;13.30;;;0.30;1.00;;;;;;5042347;28;20224;-78
2021/12/22 08:07:21;;;;;;;24.63;14.52;;;0.40;1.00;;;;;;5046169;28;21271;-81
2021/12/22 08:09:53;;;;;;;20.42;12.52;;;0.50;1.00;;;;;;5051310;28;20233;-82
2021/12/22 08:12:20;;;;;;;19.25;13.02;;;0.50;1.00;;;;;;5071623;28;20310;-82
2021/12/22 08:14:48;;;;;;;18.25;12.85;;;0.60;1.00;;;;;;5055068;28;20224;-82
2021/12/22 08:17:15;;;;;;;19.70;12.00;;;0.80;1.00;;;;;;5043370;28;20248;-80
2021/12/22 08:19:43;;;;;;;22.63;13.93;;;1.00;1.00;;;;;;5053768;28;20225;-82
2021/12/22 08:22:10;;;;;;;23.75;13.68;;;1.40;1.00;;;;;;5058971;28;20221;-82
2021/12/22 08:24:37;;;;;;;19.13;13.73;;;1.90;1.00;;;;;;5050200;28;20351;-81
2021/12/22 08:27:04;;;;;;;15.75;12.27;;;2.20;1.00;;;;;;5055099;28;20209;-81
2021/12/22 08:29:32;;;;;;;19.60;13.27;;;2.50;1.00;;;;;;5056452;28;20240;-82
2021/12/22 08:32:00;;;;;;;18.80;13.70;;;2.50;1.00;;;;;;5061178;28;20250;-84
2021/12/22 08:34:35;;;;;;;21.23;14.30;;;2.40;1.00;;;;;;5058406;28;20248;-80
2021/12/22 08:39:47;;;;;;;19.90;13.50;;;2.00;1.00;;;;;;5057845;28;20216;-81
2021/12/22 08:42:14;;;;;;;18.77;11.98;;;1.80;1.00;;;;;;5052294;28;20271;-79
2021/12/22 08:44:41;;;;;;;19.38;12.07;;;1.60;1.00;;;;;;5053153;28;20229;-80
2021/12/22 08:47:09;;;;;;;16.13;11.82;;;1.60;1.00;;;;;;5064047;28;20212;-80
2021/12/22 08:49:36;;;;;;;20.65;12.55;;;1.60;1.00;;;;;;5061796;28;20280;-81
2021/12/22 08:52:04;;;;;;;19.17;12.30;;;1.60;1.00;;;;;;5045541;28;20256;-81
2021/12/22 08:54:31;;;;;;;19.15;12.65;;;1.70;1.00;;;;;;5039858;28;20221;-81
2021/12/22 08:56:58;;;;;;;16.75;12.07;;;1.70;1.00;;;;;;5035212;28;20286;-80
2021/12/22 08:59:25;;;;;;;15.82;10.32;;;1.70;1.00;;;;;;5037347;28;20260;-81
2021/12/22 09:01:54;;;;;;;17.70;11.85;;;1.80;1.00;;;;;;5038690;28;20229;-79
2021/12/22 09:04:23;;;;;;;14.48;10.27;;;1.90;1.00;;;;;;5037607;28;20348;-78
2021/12/22 09:06:52;;;;;;;15.38;11.55;;;1.90;1.00;;;;;;5045432;28;20246;-78
2021/12/22 09:09:20;;;;;;;15.40;10.00;;;2.00;1.00;;;;;;5043065;28;20232;-80
2021/12/22 09:11:48;;;;;;;17.55;10.18;;;2.30;1.00;;;;;;5036325;28;20268;-80
2021/12/22 09:14:15;;;;;;;19.35;10.98;;;2.40;1.00;;;;;;5037994;28;20225;-78
2021/12/22 09:16:42;;;;;;;16.88;9.95;;;2.40;1.00;;;;;;5053900;28;20232;-79
2021/12/22 09:19:10;;;;;;;13.38;9.75;;;2.30;1.00;;;;;;5057672;28;20267;-78
2021/12/22 09:21:39;;;;;;;14.32;9.80;;;2.40;1.00;;;;;;5047485;28;20234;-79
2021/12/22 09:24:07;;;;;;;16.50;10.35;;;2.40;1.00;;;;;;5046151;28;20759;-80
2021/12/22 09:26:34;;;;;;;18.75;10.63;;;2.50;1.00;;;;;;5047614;28;20332;-80
2021/12/22 09:29:02;;;;;;;19.38;12.50;;;2.70;1.00;;;;;;5052512;28;20228;-80
2021/12/22 09:31:37;;;;;;;17.05;11.63;;;2.80;1.00;;;;;;5050541;28;20228;-79
2021/12/22 09:34:06;;;;;;;20.13;11.60;;;2.80;1.00;;;;;;5041698;28;20217;-80
2021/12/22 09:36:33;;;;;;;19.05;13.05;;;3.00;1.00;;;;;;5041860;28;20214;-79
2021/12/22 09:39:05;;;;;;;16.83;12.50;;;3.10;1.00;;;;;;5044580;28;20225;-80
2021/12/22 09:41:33;;;;;;;21.27;14.07;;;3.10;1.00;;;;;;5051448;28;20488;-80
2021/12/22 09:44:00;;;;;;;22.02;14.13;;;3.10;1.00;;;;;;5040192;28;20221;-82
2021/12/22 09:46:27;;;;;;;24.17;14.35;;;3.10;1.00;;;;;;5040580;28;20236;-81
2021/12/22 09:49:00;;;;;;;20.98;15.95;;;3.10;1.00;;;;;;5050116;28;20217;-82
2021/12/22 09:54:15;;;;;;;22.25;15.55;;;3.10;1.00;;;;;;5050241;28;20222;-81
2021/12/22 09:56:43;;;;;;;24.73;16.70;;;3.20;1.00;;;;;;5049395;28;20292;-82
2021/12/22 09:59:11;;;;;;;21.58;15.80;;;3.40;1.00;;;;;;5048631;28;20310;-82
2021/12/22 10:01:38;;;;;;;22.85;16.10;;;3.60;1.00;;;;;;5072716;28;20230;-81
2021/12/22 10:04:05;;;;;;;23.88;16.48;;;3.60;1.00;;;;;;5061683;28;20322;-81
2021/12/22 10:06:32;;;;;;;26.38;18.35;;;3.70;1.00;;;;;;5066186;28;20210;-78
2021/12/22 10:09:06;;;;;;;23.88;17.48;;;3.70;1.00;;;;;;5059557;28;20221;-79
2021/12/22 10:11:42;;;;;;;25.77;17.15;;;3.80;1.00;;;;;;5066386;28;20221;-78
2021/12/22 10:14:18;;;;;;;21.48;17.58;;;3.70;1.00;;;;;;5068955;28;20293;-78
2021/12/22 10:16:47;;;;;;;23.50;18.08;;;3.50;1.00;;;;;;5049837;28;20241;-80
2021/12/22 10:19:14;;;;;;;25.83;17.83;;;3.40;1.00;;;;;;5045145;28;20227;-80
2021/12/22 10:21:53;;;;;;;27.67;18.15;;;3.40;1.00;;;;;;5049968;28;20264;-79
2021/12/22 10:24:32;;;;;;;24.42;17.35;;;3.40;1.00;;;;;;5048442;28;20312;-81
2021/12/22 10:27:16;;;;;;;23.17;16.60;;;3.50;1.00;;;;;;5052302;28;20230;-81
2021/12/22 10:29:52;;;;;;;25.50;17.27;;;3.40;1.00;;;;;;5058684;28;20277;-80
2021/12/22 10:32:19;;;;;;;24.20;19.25;;;3.40;1.00;;;;;;5057730;28;20331;-80
2021/12/22 10:35:02;;;;;;;22.30;17.83;;;3.30;1.00;;;;;;5045059;28;21208;-80
2021/12/22 10:37:34;;;;;;;21.15;16.83;;;3.40;1.00;;;;;;5047375;28;20219;-80
2021/12/22 10:40:02;;;;;;;26.15;17.30;;;3.50;1.00;;;;;;5048130;28;20325;-82
2021/12/22 10:42:42;;;;;;;25.33;19.60;;;3.50;1.00;;;;;;5050696;28;20274;-79
2021/12/22 10:45:13;;;;;;;28.55;20.38;;;3.70;1.00;;;;;;5047965;28;20748;-80
2021/12/22 10:50:28;;;;;;;26.15;20.08;;;4.60;1.00;;;;;;5046888;28;20234;-82
2021/12/22 10:52:55;;;;;;;23.75;18.48;;;4.80;1.00;;;;;;5048427;28;20332;-81
2021/12/22 10:55:22;;;;;;;26.15;18.90;;;5.10;1.00;;;;;;5046987;28;20229;-82
2021/12/22 10:57:50;;;;;;;25.98;19.17;;;5.30;1.00;;;;;;5048177;28;20222;-79
2021/12/22 11:00:19;;;;;;;25.52;18.65;;;5.10;1.00;;;;;;5044978;28;20261;-82
2021/12/22 11:03:02;;;;;;;21.38;17.10;;;5.00;1.00;;;;;;5049177;28;20226;-81
2021/12/22 11:05:30;;;;;;;21.75;17.67;;;4.80;1.00;;;;;;5072421;28;20213;-80
2021/12/22 11:07:58;;;;;;;29.02;18.80;;;4.80;1.00;;;;;;5059669;28;20233;-80
2021/12/22 11:10:27;;;;;;;22.85;17.25;;;4.90;1.00;;;;;;5048241;28;20325;-80
2021/12/22 11:13:03;;;;;;;26.85;18.80;;;5.20;1.00;;;;;;5040960;28;20244;-81
2021/12/22 11:15:31;;;;;;;24.08;18.83;;;5.60;1.00;;;;;;5049157;28;20229;-81
2021/12/22 11:17:58;;;;;;;23.20;17.90;;;5.90;1.00;;;;;;5047268;28;20226;-82
2021/12/22 11:20:26;;;;;;;23.05;17.50;;;5.90;1.00;;;;;;5051883;28;20217;-84
2021/12/22 11:22:58;;;;;;;27.02;20.70;;;6.00;1.00;;;;;;5051892;28;20347;-82
2021/12/22 11:25:29;;;;;;;23.98;18.48;;;6.10;1.00;;;;;;5052181;28;20213;-80
2021/12/22 11:27:58;;;;;;;29.02;18.63;;;6.30;1.00;;;;;;5054255;28;20223;-80
2021/12/22 11:30:28;;;;;;;22.33;18.45;;;6.50;1.00;;;;;;5048107;28;20230;-79
2021/12/22 11:32:56;;;;;;;30.83;17.88;;;6.40;1.00;;;;;;5061344;28;20289;-81
2021/12/22 11:35:23;;;;;;;24.95;17.10;;;6.40;1.00;;;;;;5057425;28;20217;-83
2021/12/22 11:37:51;;;;;;;23.10;16.23;;;6.30;1.00;;;;;;5052137;28;20308;-82
2021/12/22 11:40:19;;;;;;;24.23;16.42;;;6.40;1.00;;;;;;5054229;28;20249;-79
2021/12/22 11:42:45;;;;;;;19.50;15.80;;;6.50;1.00;;;;;;5059580;28;20777;-82
2021/12/22 11:45:15;;;;;;;17.92;14.75;;;6.70;1.00;;;;;;5059318;28;20320;-83
2021/12/22 11:47:45;;;;;;;24.05;16.85;;;7.00;1.00;;;;;;5050677;28;20244;-81
2021/12/22 11:50:18;;;;;;;23.63;17.15;;;7.20;1.00;;;;;;5062167;28;20218;-79
2021/12/22 11:52:55;;;;;;;21.33;15.65;;;7.30;1.00;;;;;;5068982;28;20420;-80
2021/12/22 11:55:25;;;;;;;23.48;16.52;;;7.60;1.00;;;;;;5072592;28;20225;-80
2021/12/22 11:57:54;;;;;;;22.42;15.35;;;7.90;1.00;;;;;;5067073;28;20229;-81
2021/12/22 12:00:24;;;;;;;21.90;15.75;;;8.20;1.00;;;;;;5061493;28;20210;-79
2021/12/22 12:02:53;;;;;;;21.67;15.00;;;8.20;1.00;;;;;;5058598;28;20344;-79
2021/12/22 12:05:22;;;;;;;28.80;19.85;;;8.00;1.00;;;;;;5049041;28;20209;-80
2021/12/22 12:07:52;;;;;;;23.27;16.63;;;7.90;1.00;;;;;;5049141;28;20210;-79
2021/12/22 12:10:39;;;;;;;19.52;15.82;;;7.70;1.00;;;;;;5043505;28;20350;-79
2021/12/22 12:13:15;;;;;;;22.08;17.10;;;7.60;1.00;;;;;;5032677;28;20523;-79
2021/12/22 12:22:07;;;;;;;27.65;17.55;;;8.00;1.00;;;;;;5031778;28;20238;-79
2021/12/22 12:24:37;;;;;;;21.52;15.38;;;7.90;1.00;;;;;;5045037;28;20220;-79
2021/12/22 12:27:36;;;;;;;22.70;16.70;;;7.80;1.00;;;;;;5039492;28;21300;-81
2021/12/22 12:30:06;;;;;;;23.80;18.10;;;7.70;1.00;;;;;;5042461;28;20226;-83
2021/12/22 12:32:56;;;;;;;27.20;17.23;;;7.50;1.00;;;;;;5038455;28;20232;-79
2021/12/22 12:35:28;;;;;;;19.33;16.35;;;7.70;1.00;;;;;;5034320;28;21080;-80
2021/12/22 12:38:06;;;;;;;24.23;16.00;;;7.60;1.00;;;;;;5036193;28;20308;-82
2021/12/22 12:41:11;;;;;;;25.02;17.45;;;7.60;1.00;;;;;;5044852;28;20244;-80
2021/12/22 12:43:58;;;;;;;21.50;17.13;;;7.80;1.00;;;;;;5046873;28;22655;-80
2021/12/22 12:46:41;;;;;;;18.33;14.68;;;7.80;1.00;;;;;;5073159;28;20209;-79
2021/12/22 12:49:30;;;;;;;23.40;15.45;;;7.90;1.00;;;;;;5073013;28;20261;-77
2021/12/22 12:51:59;;;;;;;19.50;15.60;;;7.70;1.00;;;;;;5054259;28;20234;-80
2021/12/22 12:54:33;;;;;;;16.58;13.70;;;7.90;1.00;;;;;;5049501;28;20234;-81
2021/12/22 12:57:02;;;;;;;20.20;14.18;;;7.50;1.00;;;;;;5043999;28;20237;-81
2021/12/22 12:59:46;;;;;;;18.48;13.93;;;7.00;1.00;;;;;;5055238;28;20221;-80
2021/12/22 13:02:21;;;;;;;19.63;15.60;;;6.30;1.00;;;;;;5064558;28;20229;-79
2021/12/22 13:04:48;;;;;;;16.95;12.80;;;5.70;1.00;;;;;;5065797;28;20229;-79
2021/12/22 13:07:18;;;;;;;17.48;14.02;;;5.40;1.00;;;;;;5070538;28;20341;-79
2021/12/22 13:09:47;;;;;;;17.90;14.07;;;5.00;1.00;;;;;;5067847;28;20225;-79
2021/12/22 13:12:31;;;;;;;17.65;13.15;;;4.70;1.00;;;;;;5057302;28;20236;-80
2021/12/22 13:17:49;;;;;;;21.85;14.05;;;3.90;1.00;;;;;;5053041;28;20230;-81
2021/12/22 13:20:18;;;;;;;17.90;13.70;;;3.70;1.00;;;;;;5052994;28;20220;-77
2021/12/22 13:22:50;;;;;;;17.77;13.63;;;3.60;1.00;;;;;;5049328;28;20226;-80
2021/12/22 13:25:19;;;;;;;17.63;13.05;;;3.60;1.00;;;;;;5048265;28;20302;-80
2021/12/22 13:27:49;;;;;;;17.15;13.85;;;3.60;1.00;;;;;;5057768;28;20821;-80
2021/12/22 13:30:19;;;;;;;16.95;13.40;;;3.70;1.00;;;;;;5041577;28;20227;-80